createdAt,value
2023-03-06T00:00:54.688Z,84.96
2023-03-06T00:03:23.081Z,84.97
2023-03-06T00:05:49.990Z,85.34
2023-03-06T00:08:16.852Z,85.78
2023-03-06T00:10:43.848Z,85.60
2023-03-06T00:13:14.696Z,85.61
2023-03-06T00:15:41.787Z,85.91
2023-03-06T00:18:08.651Z,86.15
2023-03-06T00:20:35.555Z,85.17
2023-03-06T00:23:02.820Z,85.49
2023-03-06T00:25:29.656Z,85.19
2023-03-06T00:27:56.616Z,85.27
2023-03-06T00:30:25.019Z,85.47
2023-03-06T00:32:53.010Z,85.00
2023-03-06T00:35:20.017Z,85.52
2023-03-06T00:37:46.832Z,85.24
2023-03-06T00:40:17.970Z,85.18
2023-03-06T00:42:45.680Z,85.13
2023-03-06T00:45:13.059Z,85.01
2023-03-06T00:47:41.018Z,85.17
2023-03-06T00:50:09.253Z,85.40
2023-03-06T00:52:36.974Z,85.44
2023-03-06T00:55:05.016Z,85.96
2023-03-06T00:57:31.805Z,85.33
2023-03-06T00:59:58.799Z,85.19
2023-03-06T01:02:26.312Z,86.31
2023-03-06T01:04:54.689Z,85.89
2023-03-06T01:07:21.602Z,85.73
2023-03-06T01:09:48.525Z,86.18
2023-03-06T01:12:15.385Z,86.76
2023-03-06T01:14:42.063Z,86.58
2023-03-06T01:17:09.991Z,86.10
2023-03-06T01:19:36.777Z,87.02
2023-03-06T01:22:03.598Z,86.38
2023-03-06T01:24:31.603Z,86.38
2023-03-06T01:26:58.452Z,86.75
2023-03-06T01:29:26.344Z,86.65
2023-03-06T01:31:53.406Z,86.50
2023-03-06T01:34:20.589Z,86.89
2023-03-06T01:36:47.450Z,86.68
2023-03-06T01:39:14.240Z,86.49
2023-03-06T01:41:41.520Z,86.74
2023-03-06T01:44:13.600Z,86.75
2023-03-06T01:46:45.669Z,86.45
2023-03-06T01:49:29.466Z,86.19
2023-03-06T01:52:09.363Z,86.31
2023-03-06T01:54:42.762Z,86.73
2023-03-06T01:57:43.805Z,86.51
2023-03-06T02:00:17.949Z,86.50
2023-03-06T02:03:01.109Z,86.41
2023-03-06T02:05:27.914Z,86.55
2023-03-06T02:07:55.154Z,86.55
2023-03-06T02:10:22.189Z,86.17
2023-03-06T02:12:51.143Z,87.03
2023-03-06T02:15:22.325Z,86.14
2023-03-06T02:17:51.694Z,86.65
2023-03-06T02:20:24.408Z,86.45
2023-03-06T02:23:26.569Z,86.41
2023-03-06T02:25:54.225Z,86.52
2023-03-06T02:28:24.256Z,86.53
2023-03-06T02:30:53.800Z,86.28
2023-03-06T02:33:26.599Z,86.26
2023-03-06T02:36:06.058Z,87.09
2023-03-06T02:38:49.504Z,86.80
2023-03-06T02:41:17.321Z,86.54
2023-03-06T02:43:48.043Z,86.46
2023-03-06T02:46:15.075Z,86.70
2023-03-06T02:48:42.336Z,86.61
2023-03-06T02:51:09.397Z,86.57
2023-03-06T02:53:36.190Z,86.85
2023-03-06T02:56:02.985Z,86.77
2023-03-06T02:58:29.731Z,86.96
2023-03-06T03:00:56.447Z,86.81
2023-03-06T03:03:23.133Z,86.39
2023-03-06T03:05:49.902Z,86.22
2023-03-06T03:08:23.893Z,86.66
2023-03-06T03:10:56.241Z,86.44
2023-03-06T03:13:24.893Z,85.35
2023-03-06T03:16:04.263Z,85.42
2023-03-06T03:18:31.204Z,85.39
2023-03-06T03:20:58.779Z,85.51
2023-03-06T03:23:26.604Z,85.25
2023-03-06T03:26:06.319Z,84.86
2023-03-06T03:28:34.481Z,85.14
2023-03-06T03:31:09.452Z,84.63
2023-03-06T03:33:38.227Z,84.61
2023-03-06T03:36:07.377Z,84.84
2023-03-06T03:38:37.555Z,84.87
2023-03-06T03:41:04.974Z,84.24
2023-03-06T03:43:32.163Z,84.28
2023-03-06T03:46:00.216Z,84.03
2023-03-06T03:48:27.856Z,84.20
2023-03-06T03:50:55.662Z,83.81
2023-03-06T03:53:24.168Z,84.43
2023-03-06T03:55:51.048Z,84.73
2023-03-06T03:58:20.948Z,84.94
2023-03-06T04:00:48.917Z,84.88
2023-03-06T04:03:15.784Z,84.36
2023-03-06T04:05:44.968Z,84.35
2023-03-06T04:08:14.664Z,84.87
2023-03-06T04:10:44.098Z,85.09
2023-03-06T04:13:12.508Z,84.60
2023-03-06T04:15:43.086Z,84.83
2023-03-06T04:18:11.043Z,85.10
2023-03-06T04:20:38.456Z,85.34
2023-03-06T04:23:05.443Z,85.19
2023-03-06T04:25:32.778Z,85.32
2023-03-06T04:28:02.467Z,85.25
2023-03-06T04:30:30.372Z,84.92
2023-03-06T04:32:57.856Z,84.72
2023-03-06T04:35:25.079Z,84.84
2023-03-06T04:37:58.250Z,85.46
2023-03-06T04:40:32.249Z,85.20
2023-03-06T04:43:01.094Z,85.01
2023-03-06T04:45:29.939Z,85.08
2023-03-06T04:48:00.514Z,84.65
2023-03-06T04:50:32.586Z,85.04
2023-03-06T04:53:01.378Z,84.72
2023-03-06T04:55:28.934Z,84.84
2023-03-06T04:57:57.143Z,84.90
2023-03-06T05:00:31.457Z,84.66
2023-03-06T05:03:01.155Z,84.64
2023-03-06T05:05:29.462Z,84.54
2023-03-06T05:07:56.950Z,84.27
2023-03-06T05:10:24.054Z,84.20
2023-03-06T05:12:50.866Z,84.11
2023-03-06T05:15:18.145Z,84.35
2023-03-06T05:17:46.056Z,84.00
2023-03-06T05:20:14.126Z,83.69
2023-03-06T05:22:41.031Z,84.02
2023-03-06T05:25:08.503Z,83.37
2023-03-06T05:27:35.253Z,83.33
2023-03-06T05:30:02.047Z,83.70
2023-03-06T05:32:28.977Z,83.94
2023-03-06T05:34:56.053Z,83.67
2023-03-06T05:37:23.329Z,83.71
2023-03-06T05:39:51.358Z,83.85
2023-03-06T05:42:18.433Z,83.80
2023-03-06T05:44:45.791Z,83.37
2023-03-06T05:47:13.023Z,83.79
2023-03-06T05:49:40.086Z,83.62
2023-03-06T05:52:08.601Z,83.09
2023-03-06T05:54:37.286Z,82.90
2023-03-06T05:57:05.551Z,82.85
2023-03-06T05:59:33.668Z,82.75
2023-03-06T06:02:01.408Z,83.19
2023-03-06T06:04:28.568Z,82.98
2023-03-06T06:06:58.830Z,83.34
2023-03-06T06:09:26.729Z,83.57
2023-03-06T06:11:57.137Z,83.78
2023-03-06T06:14:24.294Z,83.47
2023-03-06T06:16:51.572Z,83.78
2023-03-06T06:19:19.652Z,83.73
2023-03-06T06:21:49.267Z,83.29
2023-03-06T06:24:18.885Z,83.39
2023-03-06T06:26:45.899Z,83.19
2023-03-06T06:29:13.825Z,83.26
2023-03-06T06:31:41.078Z,83.10
2023-03-06T06:34:09.689Z,82.89
2023-03-06T06:36:36.446Z,82.68
2023-03-06T06:39:03.620Z,82.71
2023-03-06T06:41:50.649Z,82.65
2023-03-06T06:44:18.648Z,82.94
2023-03-06T06:49:33.934Z,82.39
2023-03-06T06:52:00.917Z,82.88
2023-03-06T06:54:28.221Z,82.74
2023-03-06T06:56:55.029Z,82.43
2023-03-06T06:59:23.731Z,82.66
2023-03-06T07:01:52.309Z,82.40
2023-03-06T07:04:19.977Z,82.47
2023-03-06T07:06:47.281Z,82.66
2023-03-06T07:09:14.638Z,82.59
2023-03-06T07:11:41.839Z,81.99
2023-03-06T07:14:08.954Z,81.96
2023-03-06T07:16:35.776Z,82.26
2023-03-06T07:19:02.898Z,82.12
2023-03-06T07:21:29.668Z,81.68
2023-03-06T07:23:57.601Z,81.87
2023-03-06T07:26:28.548Z,81.04
2023-03-06T07:28:55.452Z,81.46
2023-03-06T07:31:25.573Z,81.05
2023-03-06T07:33:54.110Z,81.27
2023-03-06T07:36:23.077Z,80.79
2023-03-06T07:38:50.174Z,80.91
2023-03-06T07:41:20.432Z,81.02
2023-03-06T07:43:48.789Z,80.65
2023-03-06T07:46:17.476Z,81.15
2023-03-06T07:48:44.725Z,81.35
2023-03-06T07:51:19.129Z,81.49
2023-03-06T07:53:47.073Z,81.15
2023-03-06T07:56:14.094Z,81.16
2023-03-06T07:58:44.157Z,80.89
2023-03-06T08:01:17.828Z,81.22
2023-03-06T08:03:44.648Z,80.92
2023-03-06T08:06:15.330Z,80.91
2023-03-06T08:08:44.505Z,81.10
2023-03-06T08:11:13.851Z,81.04
2023-03-06T08:13:41.191Z,80.88
2023-03-06T08:16:09.370Z,80.86
2023-03-06T08:18:38.123Z,81.58
2023-03-06T08:21:11.667Z,81.35
2023-03-06T08:23:38.821Z,81.12
2023-03-06T08:26:11.752Z,81.55
2023-03-06T08:28:38.573Z,81.39
2023-03-06T08:31:37.939Z,81.08
2023-03-06T08:34:12.520Z,80.59
2023-03-06T08:36:39.657Z,80.74
2023-03-06T08:39:07.678Z,80.11
2023-03-06T08:41:36.451Z,80.29
2023-03-06T08:44:04.727Z,80.52
2023-03-06T08:46:33.055Z,80.46
2023-03-06T08:49:00.064Z,80.07
2023-03-06T08:51:27.964Z,80.56
2023-03-06T08:53:56.903Z,80.80
2023-03-06T08:56:30.493Z,80.53
2023-03-06T08:59:00.872Z,80.76
2023-03-06T09:01:34.722Z,80.19
2023-03-06T09:04:08.320Z,80.14
2023-03-06T09:06:40.067Z,80.08
2023-03-06T09:09:07.567Z,80.19
2023-03-06T09:11:35.102Z,80.19
2023-03-06T09:14:02.649Z,79.90
2023-03-06T09:16:29.585Z,79.32
2023-03-06T09:18:57.819Z,79.74
2023-03-06T09:21:26.258Z,79.21
2023-03-06T09:23:53.235Z,79.26
2023-03-06T09:26:28.008Z,79.27
2023-03-06T09:29:03.160Z,79.03
2023-03-06T09:31:31.738Z,79.04
2023-03-06T09:33:58.513Z,79.02
2023-03-06T09:36:25.316Z,78.35
2023-03-06T09:38:52.949Z,78.20
2023-03-06T09:41:31.687Z,77.97
2023-03-06T09:44:08.639Z,78.05
2023-03-06T09:46:55.081Z,77.90
2023-03-06T09:49:58.076Z,77.56
2023-03-06T09:52:52.325Z,78.47
2023-03-06T09:55:22.789Z,79.30
2023-03-06T09:58:14.515Z,79.77
2023-03-06T10:01:09.791Z,80.36
2023-03-06T10:03:44.081Z,80.45
2023-03-06T10:06:24.622Z,79.90
2023-03-06T10:09:01.288Z,79.60
2023-03-06T10:11:36.668Z,79.52
2023-03-06T10:14:20.283Z,79.00
2023-03-06T10:16:47.160Z,78.73
2023-03-06T10:19:19.528Z,78.91
2023-03-06T10:22:21.136Z,78.21
2023-03-06T10:24:53.805Z,78.68
2023-03-06T10:27:29.350Z,79.64
2023-03-06T10:30:12.033Z,80.01
2023-03-06T10:32:57.895Z,80.44
2023-03-06T10:35:43.206Z,81.28
2023-03-06T10:38:24.182Z,81.71
2023-03-06T10:41:12.679Z,82.22
2023-03-06T10:43:43.016Z,82.64
2023-03-06T10:46:27.146Z,82.81
2023-03-06T10:49:00.241Z,82.63
2023-03-06T10:51:29.236Z,82.70
2023-03-06T10:54:28.065Z,82.15
2023-03-06T10:56:55.008Z,82.11
2023-03-06T10:59:28.190Z,82.23
2023-03-06T11:02:24.905Z,81.42
2023-03-06T11:04:54.033Z,81.81
2023-03-06T11:07:30.215Z,81.48
2023-03-06T11:09:56.992Z,82.11
2023-03-06T11:12:38.085Z,81.51
2023-03-06T11:15:24.832Z,81.53
2023-03-06T11:18:39.821Z,81.29
2023-03-06T11:21:24.956Z,80.71
2023-03-06T11:23:53.738Z,79.88
2023-03-06T11:26:32.613Z,80.11
2023-03-06T11:29:12.421Z,79.99
2023-03-06T11:31:52.680Z,79.67
2023-03-06T11:34:39.170Z,79.20
2023-03-06T11:37:33.771Z,78.91
2023-03-06T11:40:20.171Z,78.50
2023-03-06T11:43:07.235Z,78.48
2023-03-06T11:45:45.977Z,78.62
2023-03-06T11:48:16.604Z,77.82
2023-03-06T11:50:52.881Z,77.48
2023-03-06T11:53:36.726Z,77.41
2023-03-06T11:56:19.738Z,77.44
2023-03-06T11:59:33.483Z,77.13
2023-03-06T12:03:11.201Z,76.29
2023-03-06T12:05:46.066Z,75.60
2023-03-06T12:09:04.865Z,75.84
2023-03-06T12:12:08.913Z,75.27
2023-03-06T12:15:10.808Z,75.15
2023-03-06T12:18:08.227Z,74.69
2023-03-06T12:20:55.391Z,73.79
2023-03-06T12:23:31.085Z,72.90
2023-03-06T12:26:09.105Z,72.81
2023-03-06T12:28:59.991Z,73.62
2023-03-06T12:31:46.088Z,73.65
2023-03-06T12:34:46.483Z,73.15
2023-03-06T12:37:41.008Z,74.32
2023-03-06T12:40:38.211Z,74.61
2023-03-06T12:43:28.252Z,75.06
2023-03-06T12:46:03.730Z,75.41
2023-03-06T12:48:36.710Z,74.80
2023-03-06T12:51:06.823Z,75.46
2023-03-06T12:53:36.701Z,75.79
2023-03-06T12:56:04.638Z,75.52
2023-03-06T12:58:31.376Z,76.22
2023-03-06T13:01:34.500Z,75.75
2023-03-06T13:04:35.526Z,76.02
2023-03-06T13:07:11.651Z,75.44
2023-03-06T13:10:41.924Z,75.54
2023-03-06T13:13:46.958Z,75.54
2023-03-06T13:16:26.343Z,75.19
2023-03-06T13:19:12.111Z,75.49
2023-03-06T13:21:41.857Z,76.15
2023-03-06T13:24:22.223Z,75.76
2023-03-06T13:26:56.105Z,75.74
2023-03-06T13:29:37.813Z,75.59
2023-03-06T13:32:04.463Z,75.34
2023-03-06T13:34:38.300Z,75.58
2023-03-06T13:37:17.427Z,75.20
2023-03-06T13:39:56.692Z,74.80
2023-03-06T13:42:30.538Z,75.01
2023-03-06T13:45:18.409Z,74.34
2023-03-06T13:48:14.170Z,73.79
2023-03-06T13:50:43.164Z,73.97
2023-03-06T13:53:37.952Z,74.78
2023-03-06T13:56:23.500Z,75.16
2023-03-06T13:58:53.063Z,75.05
2023-03-06T14:01:39.387Z,74.73
2023-03-06T14:04:33.247Z,75.43
2023-03-06T14:07:23.438Z,75.85
2023-03-06T14:10:14.742Z,75.69
2023-03-06T14:12:50.729Z,75.15
2023-03-06T14:15:45.932Z,76.20
2023-03-06T14:18:48.236Z,75.39
2023-03-06T14:21:30.431Z,75.61
2023-03-06T14:24:01.187Z,75.18
2023-03-06T14:26:34.810Z,75.78
2023-03-06T14:29:02.990Z,75.41
2023-03-06T14:31:42.804Z,74.50
2023-03-06T14:34:21.705Z,74.67
2023-03-06T14:36:52.242Z,74.81
2023-03-06T14:39:37.097Z,74.87
2023-03-06T14:42:20.681Z,74.79
2023-03-06T14:44:49.971Z,75.00
2023-03-06T14:47:30.221Z,74.86
2023-03-06T14:50:25.664Z,74.73
2023-03-06T14:52:57.904Z,74.69
2023-03-06T14:55:28.112Z,75.14
2023-03-06T14:58:08.260Z,75.38
2023-03-06T15:00:42.150Z,75.75
2023-03-06T15:03:17.677Z,75.86
2023-03-06T15:05:45.961Z,75.82
2023-03-06T15:08:20.199Z,76.55
2023-03-06T15:11:03.017Z,76.04
2023-03-06T15:13:32.145Z,75.20
2023-03-06T15:16:23.843Z,74.98
2023-03-06T15:19:02.372Z,73.52
2023-03-06T15:21:38.926Z,74.25
2023-03-06T15:24:33.531Z,73.85
2023-03-06T15:27:04.577Z,73.91
2023-03-06T15:29:32.082Z,73.74
2023-03-06T15:32:35.988Z,74.55
2023-03-06T15:35:28.229Z,74.60
2023-03-06T15:37:58.254Z,74.52
2023-03-06T15:40:30.749Z,74.47
2023-03-06T15:42:59.134Z,74.70
2023-03-06T15:45:29.439Z,74.79
2023-03-06T15:47:56.378Z,75.54
2023-03-06T15:50:25.861Z,75.50
2023-03-06T15:52:52.619Z,75.50
2023-03-06T15:55:25.726Z,74.94
2023-03-06T15:58:02.932Z,75.58
2023-03-06T16:00:34.430Z,75.00
2023-03-06T16:03:05.259Z,75.07
2023-03-06T16:05:32.517Z,74.33
2023-03-06T16:07:59.289Z,73.62
2023-03-06T16:10:29.337Z,73.50
2023-03-06T16:13:15.696Z,73.02
2023-03-06T16:15:50.783Z,73.34
2023-03-06T16:18:18.311Z,72.60
2023-03-06T16:20:45.259Z,72.92
2023-03-06T16:23:12.412Z,72.52
2023-03-06T16:25:43.016Z,72.42
2023-03-06T16:28:14.311Z,72.73
2023-03-06T16:30:43.568Z,72.72
2023-03-06T16:33:14.264Z,72.85
2023-03-06T16:35:44.265Z,73.22
2023-03-06T16:38:21.175Z,73.22
2023-03-06T16:40:48.819Z,73.86
2023-03-06T16:43:16.522Z,73.64
2023-03-06T16:45:43.680Z,73.18
2023-03-06T16:48:15.857Z,73.25
2023-03-06T16:50:43.094Z,73.17
2023-03-06T16:53:09.885Z,73.49
2023-03-06T16:55:36.862Z,73.99
2023-03-06T16:58:04.485Z,74.15
2023-03-06T17:00:34.462Z,74.72
2023-03-06T17:03:04.044Z,73.96
2023-03-06T17:05:36.088Z,74.43
2023-03-06T17:08:03.904Z,74.26
2023-03-06T17:10:31.130Z,74.48
2023-03-06T17:12:57.865Z,74.43
2023-03-06T17:15:24.696Z,74.55
2023-03-06T17:17:53.160Z,74.72
2023-03-06T17:20:20.316Z,75.08
2023-03-06T17:22:47.063Z,75.00
2023-03-06T17:25:13.932Z,74.73
2023-03-06T17:27:41.104Z,75.40
2023-03-06T17:30:08.551Z,75.48
2023-03-06T17:32:35.517Z,75.45
2023-03-06T17:35:02.244Z,75.16
2023-03-06T17:37:29.027Z,75.38
2023-03-06T17:39:55.790Z,76.43
2023-03-06T17:42:22.582Z,75.72
2023-03-06T17:44:49.470Z,75.89
2023-03-06T17:47:16.319Z,76.05
2023-03-06T17:49:43.204Z,75.49
2023-03-06T17:52:10.850Z,75.76
2023-03-06T17:54:37.596Z,75.81
2023-03-06T17:57:05.729Z,75.83
2023-03-06T17:59:36.342Z,75.40
2023-03-06T18:02:03.368Z,74.65
2023-03-06T18:04:30.323Z,74.65
2023-03-06T18:06:58.574Z,74.90
2023-03-06T18:09:25.452Z,74.87
2023-03-06T18:11:52.354Z,74.22
2023-03-06T18:14:19.326Z,74.47
2023-03-06T18:16:46.395Z,73.91
2023-03-06T18:19:13.288Z,74.15
2023-03-06T18:21:40.173Z,73.72
2023-03-06T18:24:07.646Z,73.43
2023-03-06T18:26:34.443Z,72.82
2023-03-06T18:29:04.433Z,72.96
2023-03-06T18:31:38.333Z,73.48
2023-03-06T18:34:12.366Z,72.86
2023-03-06T18:36:40.954Z,73.13
2023-03-06T18:39:10.312Z,72.85
2023-03-06T18:41:37.735Z,72.14
2023-03-06T18:44:05.846Z,71.63
2023-03-06T18:46:36.498Z,71.11
2023-03-06T18:49:04.069Z,70.96
2023-03-06T18:51:31.663Z,70.91
2023-03-06T18:54:04.045Z,70.30
2023-03-06T18:56:31.152Z,69.77
2023-03-06T18:59:05.083Z,70.00
2023-03-06T19:01:32.869Z,69.23
2023-03-06T19:04:02.192Z,68.61
2023-03-06T19:06:29.967Z,68.48
2023-03-06T19:09:01.669Z,68.11
2023-03-06T19:11:29.330Z,67.90
2023-03-06T19:13:56.176Z,68.12
2023-03-06T19:16:26.762Z,67.95
2023-03-06T19:18:57.287Z,67.28
2023-03-06T19:21:27.175Z,67.68
2023-03-06T19:23:54.619Z,67.18
2023-03-06T19:26:22.076Z,67.22
2023-03-06T19:28:49.515Z,66.96
2023-03-06T19:31:25.120Z,67.28
2023-03-06T19:33:53.881Z,67.26
2023-03-06T19:36:26.558Z,67.42
2023-03-06T19:38:58.434Z,67.35
2023-03-06T19:41:26.538Z,67.16
2023-03-06T19:43:58.289Z,66.62
2023-03-06T19:46:26.534Z,66.80
2023-03-06T19:48:59.318Z,66.72
2023-03-06T19:51:27.313Z,66.65
2023-03-06T19:53:55.637Z,65.78
2023-03-06T19:56:30.137Z,66.29
2023-03-06T19:58:57.369Z,65.13
2023-03-06T20:01:26.856Z,65.40
2023-03-06T20:03:59.081Z,65.92
2023-03-06T20:06:30.265Z,65.28
2023-03-06T20:08:57.205Z,64.96
2023-03-06T20:11:27.166Z,65.09
2023-03-06T20:13:54.198Z,65.29
2023-03-06T20:16:21.010Z,65.09
2023-03-06T20:18:47.960Z,65.00
2023-03-06T20:21:15.589Z,65.04
2023-03-06T20:23:43.258Z,65.45
2023-03-06T20:26:13.130Z,65.43
2023-03-06T20:28:41.702Z,65.60
2023-03-06T20:31:20.443Z,65.29
2023-03-06T20:33:50.406Z,65.80
2023-03-06T20:36:25.017Z,66.14
2023-03-06T20:38:51.956Z,66.23
2023-03-06T20:41:26.495Z,65.71
2023-03-06T20:43:54.042Z,66.41
2023-03-06T20:46:22.802Z,66.42
2023-03-06T20:48:52.267Z,65.97
2023-03-06T20:51:27.927Z,66.80
2023-03-06T20:53:55.784Z,66.69
2023-03-06T20:56:29.341Z,66.46
2023-03-06T20:58:58.316Z,66.37
2023-03-06T21:01:34.636Z,66.47
2023-03-06T21:04:04.497Z,66.50
2023-03-06T21:06:32.225Z,66.84
2023-03-06T21:09:01.191Z,66.99
2023-03-06T21:11:28.397Z,67.22
2023-03-06T21:13:56.153Z,68.00
2023-03-06T21:16:26.375Z,68.95
2023-03-06T21:18:58.227Z,69.40
2023-03-06T21:21:31.039Z,70.79
2023-03-06T21:23:58.162Z,71.76
2023-03-06T21:26:29.072Z,73.62
2023-03-06T21:28:59.411Z,75.38
2023-03-06T21:31:30.182Z,76.18
2023-03-06T21:33:58.936Z,77.20
2023-03-06T21:36:27.029Z,78.11
2023-03-06T21:38:54.640Z,78.28
2023-03-06T21:41:27.962Z,78.85
2023-03-06T21:44:00.710Z,79.87
2023-03-06T21:46:28.117Z,80.25
2023-03-06T21:48:55.792Z,80.53
2023-03-06T21:51:24.104Z,81.17
2023-03-06T21:53:52.782Z,80.80
2023-03-06T21:56:22.668Z,80.95
2023-03-06T21:58:49.407Z,81.07
2023-03-06T22:01:26.100Z,81.06
2023-03-06T22:03:54.043Z,80.81
2023-03-06T22:06:25.364Z,80.80
2023-03-06T22:08:52.281Z,80.36
2023-03-06T22:11:22.093Z,79.67
2023-03-06T22:13:49.559Z,80.41
2023-03-06T22:16:17.426Z,79.65
2023-03-06T22:18:49.947Z,79.75
2023-03-06T22:21:19.896Z,79.45
2023-03-06T22:23:57.512Z,79.07
2023-03-06T22:26:28.648Z,79.02
2023-03-06T22:28:55.721Z,79.09
2023-03-06T22:31:25.906Z,79.09
2023-03-06T22:33:54.786Z,79.83
2023-03-06T22:36:23.360Z,79.87
2023-03-06T22:38:56.125Z,79.48
2023-03-06T22:41:23.346Z,79.75
2023-03-06T22:43:50.071Z,80.45
2023-03-06T22:46:17.978Z,80.58
2023-03-06T22:48:45.243Z,81.20
2023-03-06T22:51:15.780Z,81.68
2023-03-06T22:53:43.592Z,82.41
2023-03-06T22:56:13.326Z,82.71
2023-03-06T22:58:41.020Z,83.03
2023-03-06T23:01:11.992Z,83.21
2023-03-06T23:03:42.648Z,83.84
2023-03-06T23:06:14.414Z,84.19
2023-03-06T23:08:42.404Z,84.79
2023-03-06T23:11:13.234Z,84.75
2023-03-06T23:13:59.171Z,84.92
2023-03-06T23:16:44.684Z,85.35
2023-03-06T23:19:30.783Z,85.95
2023-03-06T23:22:15.933Z,85.72
2023-03-06T23:25:01.170Z,86.27
2023-03-06T23:27:29.399Z,85.96
2023-03-06T23:29:58.813Z,86.30
2023-03-06T23:32:25.617Z,86.32
2023-03-06T23:34:52.517Z,86.61
2023-03-06T23:37:19.301Z,86.73
2023-03-06T23:39:46.941Z,87.25
2023-03-06T23:42:13.730Z,86.88
2023-03-06T23:44:40.621Z,87.05
2023-03-06T23:47:07.449Z,87.44
2023-03-06T23:49:34.541Z,86.95
2023-03-06T23:52:01.666Z,87.11
2023-03-06T23:54:28.534Z,86.88
2023-03-06T23:56:55.380Z,86.68
2023-03-06T23:59:22.158Z,86.63
